sensor_id;sensor_type;location;lat;lon;timestamp;P1;durP1;ratioP1;P2;durP2;ratioP2
72319;SDS011;60269;52.502;16.732;2023-05-07T00:02:24;12.40;;;4.55;;
72319;SDS011;60269;52.502;16.732;2023-05-07T00:05:57;13.23;;;4.95;;
72319;SDS011;60269;52.502;16.732;2023-05-07T00:09:30;13.03;;;5.23;;
72319;SDS011;60269;52.502;16.732;2023-05-07T00:13:02;17.90;;;6.00;;
72319;SDS011;60269;52.502;16.732;2023-05-07T00:16:34;12.77;;;4.72;;
72319;SDS011;60269;52.502;16.732;2023-05-07T00:20:06;11.83;;;5.20;;
72319;SDS011;60269;52.502;16.732;2023-05-07T00:23:38;11.93;;;5.10;;
72319;SDS011;60269;52.502;16.732;2023-05-07T00:27:11;14.93;;;6.07;;
72319;SDS011;60269;52.502;16.732;2023-05-07T00:30:43;15.98;;;6.00;;
72319;SDS011;60269;52.502;16.732;2023-05-07T00:34:15;13.77;;;5.83;;
72319;SDS011;60269;52.502;16.732;2023-05-07T00:37:47;12.47;;;5.07;;
72319;SDS011;60269;52.502;16.732;2023-05-07T00:41:20;14.55;;;4.75;;
72319;SDS011;60269;52.502;16.732;2023-05-07T00:44:52;11.18;;;5.25;;
72319;SDS011;60269;52.502;16.732;2023-05-07T00:48:25;11.63;;;5.03;;
72319;SDS011;60269;52.502;16.732;2023-05-07T00:51:58;11.73;;;4.60;;
72319;SDS011;60269;52.502;16.732;2023-05-07T00:55:32;13.15;;;5.05;;
72319;SDS011;60269;52.502;16.732;2023-05-07T00:59:04;13.27;;;5.70;;
72319;SDS011;60269;52.502;16.732;2023-05-07T01:02:40;15.47;;;5.67;;
72319;SDS011;60269;52.502;16.732;2023-05-07T01:06:14;14.20;;;5.70;;
72319;SDS011;60269;52.502;16.732;2023-05-07T01:09:49;13.50;;;5.63;;
72319;SDS011;60269;52.502;16.732;2023-05-07T01:13:21;17.27;;;5.47;;
72319;SDS011;60269;52.502;16.732;2023-05-07T01:16:55;14.90;;;4.87;;
72319;SDS011;60269;52.502;16.732;2023-05-07T01:20:28;12.40;;;5.40;;
72319;SDS011;60269;52.502;16.732;2023-05-07T01:24:00;14.60;;;6.00;;
72319;SDS011;60269;52.502;16.732;2023-05-07T01:27:32;18.53;;;5.83;;
72319;SDS011;60269;52.502;16.732;2023-05-07T01:31:05;13.90;;;5.97;;
72319;SDS011;60269;52.502;16.732;2023-05-07T01:34:37;16.60;;;5.60;;
72319;SDS011;60269;52.502;16.732;2023-05-07T01:38:11;13.50;;;5.30;;
72319;SDS011;60269;52.502;16.732;2023-05-07T01:41:43;13.57;;;5.43;;
72319;SDS011;60269;52.502;16.732;2023-05-07T01:45:16;12.48;;;5.05;;
72319;SDS011;60269;52.502;16.732;2023-05-07T01:48:48;12.43;;;4.93;;
72319;SDS011;60269;52.502;16.732;2023-05-07T01:52:22;12.87;;;5.50;;
72319;SDS011;60269;52.502;16.732;2023-05-07T01:55:53;13.93;;;6.15;;
72319;SDS011;60269;52.502;16.732;2023-05-07T01:59:26;16.88;;;5.85;;
72319;SDS011;60269;52.502;16.732;2023-05-07T02:02:58;14.30;;;5.63;;
72319;SDS011;60269;52.502;16.732;2023-05-07T02:06:30;16.08;;;6.13;;
72319;SDS011;60269;52.502;16.732;2023-05-07T02:10:02;15.43;;;6.05;;
72319;SDS011;60269;52.502;16.732;2023-05-07T02:13:34;16.47;;;7.30;;
72319;SDS011;60269;52.502;16.732;2023-05-07T02:17:07;13.70;;;5.70;;
72319;SDS011;60269;52.502;16.732;2023-05-07T02:20:39;14.82;;;6.35;;
72319;SDS011;60269;52.502;16.732;2023-05-07T02:24:11;14.57;;;6.22;;
72319;SDS011;60269;52.502;16.732;2023-05-07T02:27:43;17.07;;;6.17;;
72319;SDS011;60269;52.502;16.732;2023-05-07T02:31:15;17.65;;;6.15;;
72319;SDS011;60269;52.502;16.732;2023-05-07T02:34:49;13.60;;;5.60;;
72319;SDS011;60269;52.502;16.732;2023-05-07T02:38:22;17.43;;;5.50;;
72319;SDS011;60269;52.502;16.732;2023-05-07T02:41:54;12.73;;;5.73;;
72319;SDS011;60269;52.502;16.732;2023-05-07T02:45:26;12.35;;;5.55;;
72319;SDS011;60269;52.502;16.732;2023-05-07T02:48:59;18.73;;;6.50;;
72319;SDS011;60269;52.502;16.732;2023-05-07T02:52:33;12.47;;;5.07;;
72319;SDS011;60269;52.502;16.732;2023-05-07T02:56:06;13.52;;;5.43;;
72319;SDS011;60269;52.502;16.732;2023-05-07T02:59:38;14.30;;;5.43;;
72319;SDS011;60269;52.502;16.732;2023-05-07T03:03:10;15.07;;;5.60;;
72319;SDS011;60269;52.502;16.732;2023-05-07T03:06:42;11.75;;;5.18;;
72319;SDS011;60269;52.502;16.732;2023-05-07T03:10:14;12.77;;;5.75;;
72319;SDS011;60269;52.502;16.732;2023-05-07T03:13:46;13.23;;;4.95;;
72319;SDS011;60269;52.502;16.732;2023-05-07T03:17:20;13.93;;;5.40;;
72319;SDS011;60269;52.502;16.732;2023-05-07T03:20:52;13.48;;;5.47;;
72319;SDS011;60269;52.502;16.732;2023-05-07T03:24:25;13.02;;;4.97;;
72319;SDS011;60269;52.502;16.732;2023-05-07T03:27:57;16.87;;;6.03;;
72319;SDS011;60269;52.502;16.732;2023-05-07T03:31:29;12.77;;;5.18;;
72319;SDS011;60269;52.502;16.732;2023-05-07T03:35:01;11.07;;;4.50;;
72319;SDS011;60269;52.502;16.732;2023-05-07T03:38:34;12.18;;;5.07;;
72319;SDS011;60269;52.502;16.732;2023-05-07T03:42:06;12.97;;;5.13;;
72319;SDS011;60269;52.502;16.732;2023-05-07T03:45:38;13.18;;;5.05;;
72319;SDS011;60269;52.502;16.732;2023-05-07T03:49:10;12.95;;;4.97;;
72319;SDS011;60269;52.502;16.732;2023-05-07T03:52:42;12.47;;;5.13;;
72319;SDS011;60269;52.502;16.732;2023-05-07T03:56:14;11.27;;;4.88;;
72319;SDS011;60269;52.502;16.732;2023-05-07T03:59:48;11.15;;;4.22;;
72319;SDS011;60269;52.502;16.732;2023-05-07T04:03:21;12.10;;;4.87;;
72319;SDS011;60269;52.502;16.732;2023-05-07T04:06:54;13.17;;;5.07;;
72319;SDS011;60269;52.502;16.732;2023-05-07T04:10:26;12.80;;;4.30;;
72319;SDS011;60269;52.502;16.732;2023-05-07T04:13:59;11.23;;;4.10;;
72319;SDS011;60269;52.502;16.732;2023-05-07T04:17:31;10.57;;;4.57;;
72319;SDS011;60269;52.502;16.732;2023-05-07T04:21:04;13.68;;;4.38;;
72319;SDS011;60269;52.502;16.732;2023-05-07T04:24:36;11.05;;;4.72;;
72319;SDS011;60269;52.502;16.732;2023-05-07T04:28:08;12.40;;;4.97;;
72319;SDS011;60269;52.502;16.732;2023-05-07T04:31:42;10.87;;;4.60;;
72319;SDS011;60269;52.502;16.732;2023-05-07T04:35:18;15.48;;;5.40;;
72319;SDS011;60269;52.502;16.732;2023-05-07T04:38:49;12.30;;;4.90;;
72319;SDS011;60269;52.502;16.732;2023-05-07T04:42:22;13.27;;;5.43;;
72319;SDS011;60269;52.502;16.732;2023-05-07T04:45:54;14.75;;;5.78;;
72319;SDS011;60269;52.502;16.732;2023-05-07T04:49:26;13.63;;;5.22;;
72319;SDS011;60269;52.502;16.732;2023-05-07T04:52:58;10.93;;;4.82;;
72319;SDS011;60269;52.502;16.732;2023-05-07T04:56:30;11.50;;;5.03;;
72319;SDS011;60269;52.502;16.732;2023-05-07T05:00:02;13.30;;;4.65;;
72319;SDS011;60269;52.502;16.732;2023-05-07T05:03:35;13.18;;;4.57;;
72319;SDS011;60269;52.502;16.732;2023-05-07T05:07:08;14.13;;;5.27;;
72319;SDS011;60269;52.502;16.732;2023-05-07T05:10:42;13.00;;;5.13;;
72319;SDS011;60269;52.502;16.732;2023-05-07T05:14:16;12.52;;;4.47;;
72319;SDS011;60269;52.502;16.732;2023-05-07T05:17:50;11.52;;;4.13;;
72319;SDS011;60269;52.502;16.732;2023-05-07T05:21:23;10.67;;;3.67;;
72319;SDS011;60269;52.502;16.732;2023-05-07T05:24:55;9.90;;;3.38;;
72319;SDS011;60269;52.502;16.732;2023-05-07T05:28:27;8.50;;;3.47;;
72319;SDS011;60269;52.502;16.732;2023-05-07T05:31:59;8.98;;;3.22;;
72319;SDS011;60269;52.502;16.732;2023-05-07T05:35:31;8.97;;;2.30;;
72319;SDS011;60269;52.502;16.732;2023-05-07T05:39:08;6.47;;;1.77;;
72319;SDS011;60269;52.502;16.732;2023-05-07T05:42:51;6.93;;;1.83;;
72319;SDS011;60269;52.502;16.732;2023-05-07T05:46:29;8.60;;;2.13;;
72319;SDS011;60269;52.502;16.732;2023-05-07T05:50:02;6.50;;;2.57;;
72319;SDS011;60269;52.502;16.732;2023-05-07T05:53:43;7.18;;;2.50;;
72319;SDS011;60269;52.502;16.732;2023-05-07T05:57:15;6.78;;;2.33;;
72319;SDS011;60269;52.502;16.732;2023-05-07T06:00:48;6.23;;;1.77;;
72319;SDS011;60269;52.502;16.732;2023-05-07T06:04:23;6.90;;;1.70;;
72319;SDS011;60269;52.502;16.732;2023-05-07T06:07:55;6.38;;;2.00;;
72319;SDS011;60269;52.502;16.732;2023-05-07T06:11:27;7.80;;;1.83;;
72319;SDS011;60269;52.502;16.732;2023-05-07T06:15:00;7.87;;;2.40;;
72319;SDS011;60269;52.502;16.732;2023-05-07T06:18:31;7.73;;;2.13;;
72319;SDS011;60269;52.502;16.732;2023-05-07T06:22:04;7.90;;;2.28;;
72319;SDS011;60269;52.502;16.732;2023-05-07T06:25:36;5.85;;;1.85;;
72319;SDS011;60269;52.502;16.732;2023-05-07T06:29:08;7.30;;;1.90;;
72319;SDS011;60269;52.502;16.732;2023-05-07T06:32:40;6.23;;;1.27;;
72319;SDS011;60269;52.502;16.732;2023-05-07T06:36:12;7.30;;;1.52;;
72319;SDS011;60269;52.502;16.732;2023-05-07T06:39:44;6.28;;;1.35;;
72319;SDS011;60269;52.502;16.732;2023-05-07T06:43:16;6.70;;;1.30;;
72319;SDS011;60269;52.502;16.732;2023-05-07T06:46:48;5.27;;;1.47;;
72319;SDS011;60269;52.502;16.732;2023-05-07T06:50:21;4.90;;;1.55;;
72319;SDS011;60269;52.502;16.732;2023-05-07T06:53:57;5.43;;;0.85;;
72319;SDS011;60269;52.502;16.732;2023-05-07T06:57:29;5.90;;;1.20;;
72319;SDS011;60269;52.502;16.732;2023-05-07T07:01:03;6.00;;;1.50;;
72319;SDS011;60269;52.502;16.732;2023-05-07T07:04:37;4.63;;;1.10;;
72319;SDS011;60269;52.502;16.732;2023-05-07T07:08:13;4.30;;;1.23;;
72319;SDS011;60269;52.502;16.732;2023-05-07T07:11:45;4.23;;;1.07;;
72319;SDS011;60269;52.502;16.732;2023-05-07T07:15:17;3.47;;;0.83;;
72319;SDS011;60269;52.502;16.732;2023-05-07T07:18:52;4.55;;;1.00;;
72319;SDS011;60269;52.502;16.732;2023-05-07T07:22:26;3.95;;;0.70;;
72319;SDS011;60269;52.502;16.732;2023-05-07T07:26:01;6.80;;;1.20;;
72319;SDS011;60269;52.502;16.732;2023-05-07T07:29:33;3.83;;;0.80;;
72319;SDS011;60269;52.502;16.732;2023-05-07T07:33:05;4.75;;;0.80;;
72319;SDS011;60269;52.502;16.732;2023-05-07T07:36:44;3.85;;;0.80;;
72319;SDS011;60269;52.502;16.732;2023-05-07T07:40:17;4.27;;;1.00;;
72319;SDS011;60269;52.502;16.732;2023-05-07T07:43:49;3.70;;;0.70;;
72319;SDS011;60269;52.502;16.732;2023-05-07T07:47:23;7.60;;;1.20;;
72319;SDS011;60269;52.502;16.732;2023-05-07T07:50:56;3.45;;;0.68;;
72319;SDS011;60269;52.502;16.732;2023-05-07T07:54:28;3.97;;;0.70;;
72319;SDS011;60269;52.502;16.732;2023-05-07T07:58:00;3.77;;;0.93;;
72319;SDS011;60269;52.502;16.732;2023-05-07T08:01:32;6.40;;;0.80;;
72319;SDS011;60269;52.502;16.732;2023-05-07T08:05:04;4.32;;;0.80;;
72319;SDS011;60269;52.502;16.732;2023-05-07T08:08:36;3.70;;;0.73;;
72319;SDS011;60269;52.502;16.732;2023-05-07T08:12:09;4.27;;;0.73;;
72319;SDS011;60269;52.502;16.732;2023-05-07T08:15:41;3.65;;;0.60;;
72319;SDS011;60269;52.502;16.732;2023-05-07T08:19:13;5.72;;;0.88;;
72319;SDS011;60269;52.502;16.732;2023-05-07T08:22:44;3.30;;;0.90;;
72319;SDS011;60269;52.502;16.732;2023-05-07T08:26:17;3.63;;;0.70;;
72319;SDS011;60269;52.502;16.732;2023-05-07T08:29:49;2.50;;;0.75;;
72319;SDS011;60269;52.502;16.732;2023-05-07T08:33:21;3.15;;;0.50;;
72319;SDS011;60269;52.502;16.732;2023-05-07T08:36:53;4.37;;;0.70;;
72319;SDS011;60269;52.502;16.732;2023-05-07T08:40:25;3.23;;;0.50;;
72319;SDS011;60269;52.502;16.732;2023-05-07T08:44:01;3.80;;;0.75;;
72319;SDS011;60269;52.502;16.732;2023-05-07T08:47:38;4.88;;;0.63;;
72319;SDS011;60269;52.502;16.732;2023-05-07T08:51:17;6.73;;;1.30;;
72319;SDS011;60269;52.502;16.732;2023-05-07T08:54:51;2.17;;;0.50;;
72319;SDS011;60269;52.502;16.732;2023-05-07T08:58:23;2.97;;;0.68;;
72319;SDS011;60269;52.502;16.732;2023-05-07T09:01:55;2.78;;;0.60;;
72319;SDS011;60269;52.502;16.732;2023-05-07T09:05:27;4.83;;;0.77;;
72319;SDS011;60269;52.502;16.732;2023-05-07T09:09:00;3.77;;;0.80;;
72319;SDS011;60269;52.502;16.732;2023-05-07T09:12:32;2.78;;;0.60;;
72319;SDS011;60269;52.502;16.732;2023-05-07T09:16:10;3.50;;;0.70;;
72319;SDS011;60269;52.502;16.732;2023-05-07T09:19:44;2.73;;;0.80;;
72319;SDS011;60269;52.502;16.732;2023-05-07T09:23:17;3.20;;;0.77;;
72319;SDS011;60269;52.502;16.732;2023-05-07T09:26:52;4.15;;;0.60;;
72319;SDS011;60269;52.502;16.732;2023-05-07T09:30:30;4.60;;;1.00;;
72319;SDS011;60269;52.502;16.732;2023-05-07T09:34:04;2.38;;;0.70;;
72319;SDS011;60269;52.502;16.732;2023-05-07T09:37:36;2.93;;;0.80;;
72319;SDS011;60269;52.502;16.732;2023-05-07T09:41:13;2.85;;;0.70;;
72319;SDS011;60269;52.502;16.732;2023-05-07T09:44:45;4.82;;;0.85;;
72319;SDS011;60269;52.502;16.732;2023-05-07T09:48:20;4.13;;;0.68;;
72319;SDS011;60269;52.502;16.732;2023-05-07T09:51:52;7.03;;;1.27;;
72319;SDS011;60269;52.502;16.732;2023-05-07T09:55:24;3.15;;;0.88;;
72319;SDS011;60269;52.502;16.732;2023-05-07T09:59:01;3.42;;;1.00;;
72319;SDS011;60269;52.502;16.732;2023-05-07T10:02:35;4.25;;;0.80;;
72319;SDS011;60269;52.502;16.732;2023-05-07T10:06:09;3.80;;;0.87;;
72319;SDS011;60269;52.502;16.732;2023-05-07T10:09:42;3.97;;;0.93;;
72319;SDS011;60269;52.502;16.732;2023-05-07T10:13:16;4.88;;;0.80;;
72319;SDS011;60269;52.502;16.732;2023-05-07T10:16:50;4.65;;;0.90;;
72319;SDS011;60269;52.502;16.732;2023-05-07T10:20:23;2.72;;;0.73;;
72319;SDS011;60269;52.502;16.732;2023-05-07T10:24:03;3.87;;;0.83;;
72319;SDS011;60269;52.502;16.732;2023-05-07T10:27:42;3.58;;;0.93;;
72319;SDS011;60269;52.502;16.732;2023-05-07T10:31:18;3.13;;;0.93;;
72319;SDS011;60269;52.502;16.732;2023-05-07T10:34:59;3.65;;;1.02;;
72319;SDS011;60269;52.502;16.732;2023-05-07T10:38:33;2.90;;;0.87;;
72319;SDS011;60269;52.502;16.732;2023-05-07T10:42:09;4.73;;;0.80;;
72319;SDS011;60269;52.502;16.732;2023-05-07T10:45:42;2.70;;;0.65;;
72319;SDS011;60269;52.502;16.732;2023-05-07T10:49:14;6.82;;;1.08;;
72319;SDS011;60269;52.502;16.732;2023-05-07T10:53:03;3.25;;;0.95;;
72319;SDS011;60269;52.502;16.732;2023-05-07T10:56:48;3.17;;;0.67;;
72319;SDS011;60269;52.502;16.732;2023-05-07T11:04:12;4.13;;;0.65;;
72319;SDS011;60269;52.502;16.732;2023-05-07T11:07:58;3.80;;;0.70;;
72319;SDS011;60269;52.502;16.732;2023-05-07T11:11:50;3.33;;;0.70;;
72319;SDS011;60269;52.502;16.732;2023-05-07T11:15:33;4.28;;;1.00;;
72319;SDS011;60269;52.502;16.732;2023-05-07T11:19:14;2.72;;;0.70;;
72319;SDS011;60269;52.502;16.732;2023-05-07T11:22:46;3.77;;;1.00;;
72319;SDS011;60269;52.502;16.732;2023-05-07T11:26:19;4.93;;;0.90;;
72319;SDS011;60269;52.502;16.732;2023-05-07T11:29:52;5.38;;;1.50;;
72319;SDS011;60269;52.502;16.732;2023-05-07T11:33:25;5.00;;;1.17;;
72319;SDS011;60269;52.502;16.732;2023-05-07T11:36:57;5.55;;;0.90;;
72319;SDS011;60269;52.502;16.732;2023-05-07T11:40:30;3.93;;;1.23;;
72319;SDS011;60269;52.502;16.732;2023-05-07T11:44:02;3.25;;;1.08;;
72319;SDS011;60269;52.502;16.732;2023-05-07T11:47:37;2.45;;;0.60;;
72319;SDS011;60269;52.502;16.732;2023-05-07T11:51:12;2.90;;;0.70;;
72319;SDS011;60269;52.502;16.732;2023-05-07T11:54:51;2.97;;;0.73;;
72319;SDS011;60269;52.502;16.732;2023-05-07T11:58:26;4.37;;;0.70;;
72319;SDS011;60269;52.502;16.732;2023-05-07T12:01:58;3.85;;;1.05;;
72319;SDS011;60269;52.502;16.732;2023-05-07T12:05:31;4.18;;;0.80;;
72319;SDS011;60269;52.502;16.732;2023-05-07T12:09:02;2.95;;;0.70;;
72319;SDS011;60269;52.502;16.732;2023-05-07T12:12:39;3.30;;;0.80;;
72319;SDS011;60269;52.502;16.732;2023-05-07T12:16:13;4.05;;;0.68;;
72319;SDS011;60269;52.502;16.732;2023-05-07T12:19:46;4.18;;;0.75;;
72319;SDS011;60269;52.502;16.732;2023-05-07T12:23:18;2.53;;;0.55;;
72319;SDS011;60269;52.502;16.732;2023-05-07T12:26:51;2.43;;;0.50;;
72319;SDS011;60269;52.502;16.732;2023-05-07T12:30:24;2.70;;;0.63;;
72319;SDS011;60269;52.502;16.732;2023-05-07T12:33:56;2.60;;;0.50;;
72319;SDS011;60269;52.502;16.732;2023-05-07T12:37:29;3.58;;;1.08;;
72319;SDS011;60269;52.502;16.732;2023-05-07T12:41:03;2.80;;;0.50;;
72319;SDS011;60269;52.502;16.732;2023-05-07T12:44:36;4.10;;;0.70;;
72319;SDS011;60269;52.502;16.732;2023-05-07T12:48:09;3.28;;;0.75;;
72319;SDS011;60269;52.502;16.732;2023-05-07T12:51:41;2.33;;;0.60;;
72319;SDS011;60269;52.502;16.732;2023-05-07T12:55:14;2.77;;;0.67;;
72319;SDS011;60269;52.502;16.732;2023-05-07T12:58:48;4.60;;;1.08;;
72319;SDS011;60269;52.502;16.732;2023-05-07T13:02:20;5.47;;;1.65;;
72319;SDS011;60269;52.502;16.732;2023-05-07T13:05:55;4.43;;;0.77;;
72319;SDS011;60269;52.502;16.732;2023-05-07T13:09:30;3.83;;;0.90;;
72319;SDS011;60269;52.502;16.732;2023-05-07T13:13:04;11.20;;;2.60;;
72319;SDS011;60269;52.502;16.732;2023-05-07T13:16:37;9.80;;;2.80;;
72319;SDS011;60269;52.502;16.732;2023-05-07T13:20:09;4.55;;;0.70;;
72319;SDS011;60269;52.502;16.732;2023-05-07T13:23:41;4.40;;;0.90;;
72319;SDS011;60269;52.502;16.732;2023-05-07T13:27:14;3.60;;;0.90;;
72319;SDS011;60269;52.502;16.732;2023-05-07T13:30:46;4.47;;;0.80;;
72319;SDS011;60269;52.502;16.732;2023-05-07T13:34:18;3.28;;;0.90;;
72319;SDS011;60269;52.502;16.732;2023-05-07T13:37:50;4.10;;;1.08;;
72319;SDS011;60269;52.502;16.732;2023-05-07T13:41:23;4.15;;;1.17;;
72319;SDS011;60269;52.502;16.732;2023-05-07T13:44:56;5.90;;;1.27;;
72319;SDS011;60269;52.502;16.732;2023-05-07T13:48:28;3.25;;;1.20;;
72319;SDS011;60269;52.502;16.732;2023-05-07T13:52:00;6.65;;;1.88;;
72319;SDS011;60269;52.502;16.732;2023-05-07T13:55:32;4.40;;;1.15;;
72319;SDS011;60269;52.502;16.732;2023-05-07T13:59:04;3.73;;;1.10;;
72319;SDS011;60269;52.502;16.732;2023-05-07T14:02:36;5.47;;;1.67;;
72319;SDS011;60269;52.502;16.732;2023-05-07T14:06:08;3.78;;;1.20;;
72319;SDS011;60269;52.502;16.732;2023-05-07T14:09:40;4.97;;;1.70;;
72319;SDS011;60269;52.502;16.732;2023-05-07T14:13:12;4.43;;;1.10;;
72319;SDS011;60269;52.502;16.732;2023-05-07T14:16:44;3.90;;;1.33;;
72319;SDS011;60269;52.502;16.732;2023-05-07T14:20:20;4.17;;;1.10;;
72319;SDS011;60269;52.502;16.732;2023-05-07T14:23:52;7.28;;;1.63;;
72319;SDS011;60269;52.502;16.732;2023-05-07T14:27:24;4.82;;;1.90;;
72319;SDS011;60269;52.502;16.732;2023-05-07T14:30:56;5.05;;;1.65;;
72319;SDS011;60269;52.502;16.732;2023-05-07T14:34:29;4.70;;;1.53;;
72319;SDS011;60269;52.502;16.732;2023-05-07T14:38:01;4.60;;;1.45;;
72319;SDS011;60269;52.502;16.732;2023-05-07T14:41:33;4.57;;;1.88;;
72319;SDS011;60269;52.502;16.732;2023-05-07T14:45:05;3.80;;;1.73;;
72319;SDS011;60269;52.502;16.732;2023-05-07T14:48:38;4.40;;;1.40;;
72319;SDS011;60269;52.502;16.732;2023-05-07T14:52:10;5.13;;;1.50;;
72319;SDS011;60269;52.502;16.732;2023-05-07T14:55:47;3.65;;;1.20;;
72319;SDS011;60269;52.502;16.732;2023-05-07T14:59:20;3.40;;;1.15;;
72319;SDS011;60269;52.502;16.732;2023-05-07T15:02:52;6.23;;;1.30;;
72319;SDS011;60269;52.502;16.732;2023-05-07T15:06:26;8.93;;;2.37;;
72319;SDS011;60269;52.502;16.732;2023-05-07T15:09:58;7.32;;;2.20;;
72319;SDS011;60269;52.502;16.732;2023-05-07T15:13:30;7.85;;;2.30;;
72319;SDS011;60269;52.502;16.732;2023-05-07T15:17:03;5.50;;;1.35;;
72319;SDS011;60269;52.502;16.732;2023-05-07T15:20:36;8.73;;;1.80;;
72319;SDS011;60269;52.502;16.732;2023-05-07T15:24:08;8.00;;;1.60;;
72319;SDS011;60269;52.502;16.732;2023-05-07T15:27:41;8.15;;;1.92;;
72319;SDS011;60269;52.502;16.732;2023-05-07T15:31:15;5.45;;;1.70;;
72319;SDS011;60269;52.502;16.732;2023-05-07T15:34:48;7.27;;;1.20;;
72319;SDS011;60269;52.502;16.732;2023-05-07T15:38:20;5.97;;;1.13;;
72319;SDS011;60269;52.502;16.732;2023-05-07T15:41:52;6.22;;;1.90;;
72319;SDS011;60269;52.502;16.732;2023-05-07T15:45:24;5.38;;;1.92;;
72319;SDS011;60269;52.502;16.732;2023-05-07T15:48:56;4.33;;;1.57;;
72319;SDS011;60269;52.502;16.732;2023-05-07T15:52:29;5.20;;;1.57;;
72319;SDS011;60269;52.502;16.732;2023-05-07T15:56:02;4.63;;;1.88;;
72319;SDS011;60269;52.502;16.732;2023-05-07T15:59:34;4.40;;;1.48;;
72319;SDS011;60269;52.502;16.732;2023-05-07T16:03:06;3.72;;;0.93;;
72319;SDS011;60269;52.502;16.732;2023-05-07T16:06:39;5.40;;;1.20;;
72319;SDS011;60269;52.502;16.732;2023-05-07T16:10:14;3.92;;;0.80;;
72319;SDS011;60269;52.502;16.732;2023-05-07T16:13:46;4.05;;;1.00;;
72319;SDS011;60269;52.502;16.732;2023-05-07T16:17:18;5.38;;;1.25;;
72319;SDS011;60269;52.502;16.732;2023-05-07T16:20:50;4.27;;;1.23;;
72319;SDS011;60269;52.502;16.732;2023-05-07T16:24:23;5.13;;;1.17;;
72319;SDS011;60269;52.502;16.732;2023-05-07T16:27:55;4.32;;;1.70;;
72319;SDS011;60269;52.502;16.732;2023-05-07T16:31:29;4.60;;;1.50;;
72319;SDS011;60269;52.502;16.732;2023-05-07T16:35:03;5.27;;;1.40;;
72319;SDS011;60269;52.502;16.732;2023-05-07T16:38:41;4.23;;;1.33;;
72319;SDS011;60269;52.502;16.732;2023-05-07T16:42:17;6.28;;;1.30;;
72319;SDS011;60269;52.502;16.732;2023-05-07T16:45:50;4.15;;;0.90;;
72319;SDS011;60269;52.502;16.732;2023-05-07T16:49:23;3.88;;;0.90;;
72319;SDS011;60269;52.502;16.732;2023-05-07T16:52:55;5.30;;;0.90;;
72319;SDS011;60269;52.502;16.732;2023-05-07T16:56:27;5.28;;;1.60;;
72319;SDS011;60269;52.502;16.732;2023-05-07T16:59:59;5.40;;;1.00;;
72319;SDS011;60269;52.502;16.732;2023-05-07T17:03:31;3.75;;;1.02;;
72319;SDS011;60269;52.502;16.732;2023-05-07T17:07:03;7.47;;;1.80;;
72319;SDS011;60269;52.502;16.732;2023-05-07T17:10:37;5.28;;;1.02;;
72319;SDS011;60269;52.502;16.732;2023-05-07T17:14:09;3.83;;;0.90;;
72319;SDS011;60269;52.502;16.732;2023-05-07T17:17:42;4.50;;;1.20;;
72319;SDS011;60269;52.502;16.732;2023-05-07T17:21:14;4.10;;;1.20;;
72319;SDS011;60269;52.502;16.732;2023-05-07T17:24:46;5.38;;;1.30;;
72319;SDS011;60269;52.502;16.732;2023-05-07T17:28:18;5.30;;;1.30;;
72319;SDS011;60269;52.502;16.732;2023-05-07T17:31:50;6.73;;;1.60;;
72319;SDS011;60269;52.502;16.732;2023-05-07T17:35:22;5.77;;;1.27;;
72319;SDS011;60269;52.502;16.732;2023-05-07T17:38:54;5.32;;;1.65;;
72319;SDS011;60269;52.502;16.732;2023-05-07T17:42:25;6.88;;;1.45;;
72319;SDS011;60269;52.502;16.732;2023-05-07T17:45:58;6.33;;;1.50;;
72319;SDS011;60269;52.502;16.732;2023-05-07T17:49:30;6.10;;;1.87;;
72319;SDS011;60269;52.502;16.732;2023-05-07T17:53:02;4.55;;;1.17;;
72319;SDS011;60269;52.502;16.732;2023-05-07T17:56:39;6.00;;;1.55;;
72319;SDS011;60269;52.502;16.732;2023-05-07T18:00:17;5.27;;;1.53;;
72319;SDS011;60269;52.502;16.732;2023-05-07T18:03:49;7.93;;;1.30;;
72319;SDS011;60269;52.502;16.732;2023-05-07T18:07:21;6.15;;;1.50;;
72319;SDS011;60269;52.502;16.732;2023-05-07T18:10:53;8.35;;;1.30;;
72319;SDS011;60269;52.502;16.732;2023-05-07T18:14:25;5.60;;;1.77;;
72319;SDS011;60269;52.502;16.732;2023-05-07T18:17:57;5.50;;;1.47;;
72319;SDS011;60269;52.502;16.732;2023-05-07T18:21:30;5.22;;;1.60;;
72319;SDS011;60269;52.502;16.732;2023-05-07T18:25:02;9.82;;;1.98;;
72319;SDS011;60269;52.502;16.732;2023-05-07T18:28:34;7.07;;;1.53;;
72319;SDS011;60269;52.502;16.732;2023-05-07T18:32:06;6.27;;;1.73;;
72319;SDS011;60269;52.502;16.732;2023-05-07T18:35:38;8.68;;;2.15;;
72319;SDS011;60269;52.502;16.732;2023-05-07T18:39:10;6.00;;;1.95;;
72319;SDS011;60269;52.502;16.732;2023-05-07T18:42:42;8.80;;;1.80;;
72319;SDS011;60269;52.502;16.732;2023-05-07T18:46:15;5.53;;;1.40;;
72319;SDS011;60269;52.502;16.732;2023-05-07T18:49:47;7.43;;;1.70;;
72319;SDS011;60269;52.502;16.732;2023-05-07T18:53:19;5.50;;;1.60;;
72319;SDS011;60269;52.502;16.732;2023-05-07T18:56:51;8.47;;;2.40;;
72319;SDS011;60269;52.502;16.732;2023-05-07T19:00:24;8.20;;;2.50;;
72319;SDS011;60269;52.502;16.732;2023-05-07T19:03:55;7.90;;;2.30;;
72319;SDS011;60269;52.502;16.732;2023-05-07T19:07:28;11.02;;;2.63;;
72319;SDS011;60269;52.502;16.732;2023-05-07T19:11:01;8.87;;;3.00;;
72319;SDS011;60269;52.502;16.732;2023-05-07T19:14:34;12.20;;;2.88;;
72319;SDS011;60269;52.502;16.732;2023-05-07T19:18:06;9.55;;;2.78;;
72319;SDS011;60269;52.502;16.732;2023-05-07T19:21:38;9.57;;;2.90;;
72319;SDS011;60269;52.502;16.732;2023-05-07T19:25:11;8.57;;;3.10;;
72319;SDS011;60269;52.502;16.732;2023-05-07T19:28:44;8.35;;;2.88;;
72319;SDS011;60269;52.502;16.732;2023-05-07T19:32:27;7.60;;;2.25;;
72319;SDS011;60269;52.502;16.732;2023-05-07T19:35:59;9.20;;;3.13;;
72319;SDS011;60269;52.502;16.732;2023-05-07T19:39:32;16.80;;;5.10;;
72319;SDS011;60269;52.502;16.732;2023-05-07T19:43:05;11.10;;;3.53;;
72319;SDS011;60269;52.502;16.732;2023-05-07T19:46:39;8.38;;;3.05;;
72319;SDS011;60269;52.502;16.732;2023-05-07T19:50:15;27.37;;;10.70;;
72319;SDS011;60269;52.502;16.732;2023-05-07T19:53:48;24.10;;;10.15;;
72319;SDS011;60269;52.502;16.732;2023-05-07T19:57:20;25.38;;;10.00;;
72319;SDS011;60269;52.502;16.732;2023-05-07T20:00:52;19.02;;;7.80;;
72319;SDS011;60269;52.502;16.732;2023-05-07T20:04:25;14.37;;;5.47;;
72319;SDS011;60269;52.502;16.732;2023-05-07T20:08:01;12.68;;;4.85;;
72319;SDS011;60269;52.502;16.732;2023-05-07T20:11:33;12.00;;;4.60;;
72319;SDS011;60269;52.502;16.732;2023-05-07T20:15:06;10.30;;;3.93;;
72319;SDS011;60269;52.502;16.732;2023-05-07T20:18:40;12.63;;;4.85;;
72319;SDS011;60269;52.502;16.732;2023-05-07T20:22:13;14.90;;;5.10;;
72319;SDS011;60269;52.502;16.732;2023-05-07T20:25:45;11.43;;;4.55;;
72319;SDS011;60269;52.502;16.732;2023-05-07T20:29:21;13.60;;;4.50;;
72319;SDS011;60269;52.502;16.732;2023-05-07T20:32:54;15.23;;;4.95;;
72319;SDS011;60269;52.502;16.732;2023-05-07T20:36:26;11.23;;;4.55;;
72319;SDS011;60269;52.502;16.732;2023-05-07T20:40:01;14.30;;;5.17;;
72319;SDS011;60269;52.502;16.732;2023-05-07T20:43:35;11.80;;;4.67;;
72319;SDS011;60269;52.502;16.732;2023-05-07T20:47:10;12.73;;;4.90;;
72319;SDS011;60269;52.502;16.732;2023-05-07T20:50:42;13.85;;;4.90;;
72319;SDS011;60269;52.502;16.732;2023-05-07T20:54:14;14.00;;;5.10;;
72319;SDS011;60269;52.502;16.732;2023-05-07T20:57:46;9.80;;;4.00;;
72319;SDS011;60269;52.502;16.732;2023-05-07T21:01:18;9.60;;;4.13;;
72319;SDS011;60269;52.502;16.732;2023-05-07T21:04:50;9.68;;;4.28;;